Time;durP1;ratioP1;P1;durP2;ratioP2;P2;SDS_P1;SDS_P2;PMS_P1;PMS_P2;Temp;Humidity;BMP_temperature;BMP_pressure;BME280_temperature;BME280_humidity;BME280_pressure;Samples;Min_cycle;Max_cycle;Signal;HPM_P1;HPM_P2
2021/05/07 00:00:37;;;;;;;14.33;10.30;;;4.30;99.90;;;;;;4421286;32;20607;-60
2021/05/07 00:03:03;;;;;;;13.70;10.27;;;4.20;99.90;;;;;;4421277;32;20558;-61
2021/05/07 00:05:30;;;;;;;14.87;11.00;;;4.20;99.90;;;;;;4426064;32;20553;-58
2021/05/07 00:07:59;;;;;;;13.70;11.40;;;4.20;99.90;;;;;;4436246;32;20468;-59
2021/05/07 00:10:26;;;;;;;16.40;11.83;;;4.10;99.90;;;;;;4436239;32;20571;-61
2021/05/07 00:12:53;;;;;;;15.30;10.33;;;4.10;99.90;;;;;;4431885;32;20171;-59
2021/05/07 00:15:20;;;;;;;14.13;11.30;;;4.00;99.90;;;;;;4429690;32;20181;-59
2021/05/07 00:17:46;;;;;;;15.73;11.00;;;4.00;99.90;;;;;;4421017;32;20638;-59
2021/05/07 00:20:13;;;;;;;14.50;10.43;;;3.90;99.90;;;;;;4420550;32;20172;-59
2021/05/07 00:22:41;;;;;;;15.57;11.50;;;3.90;99.90;;;;;;4420118;32;20226;-59
2021/05/07 00:25:09;;;;;;;15.27;10.70;;;3.80;99.90;;;;;;4421996;32;20472;-60
2021/05/07 00:27:36;;;;;;;13.17;10.10;;;3.80;99.90;;;;;;4421481;32;20222;-58
2021/05/07 00:30:03;;;;;;;15.17;10.83;;;3.70;99.90;;;;;;4420824;32;20182;-58
2021/05/07 00:32:29;;;;;;;14.87;10.83;;;3.70;99.90;;;;;;4420561;32;20139;-60
2021/05/07 00:34:55;;;;;;;17.37;11.00;;;3.70;99.90;;;;;;4419924;32;20235;-58
2021/05/07 00:37:22;;;;;;;14.23;11.10;;;3.60;99.90;;;;;;4431936;32;20155;-58
2021/05/07 00:39:48;;;;;;;13.77;10.93;;;3.60;99.90;;;;;;4429691;32;20213;-60
2021/05/07 00:42:17;;;;;;;17.53;10.87;;;3.50;99.90;;;;;;4421045;32;20148;-60
2021/05/07 00:44:44;;;;;;;13.47;10.57;;;3.60;99.90;;;;;;4420586;32;20181;-59
2021/05/07 00:47:10;;;;;;;16.57;10.07;;;3.50;99.90;;;;;;4428916;32;20181;-58
2021/05/07 00:49:38;;;;;;;15.57;10.80;;;3.50;99.90;;;;;;4436301;32;20168;-59
2021/05/07 00:52:06;;;;;;;15.90;10.40;;;3.50;99.90;;;;;;4436891;32;20512;-59
2021/05/07 00:54:34;;;;;;;13.03;10.80;;;3.50;99.90;;;;;;4435983;32;20215;-59
2021/05/07 00:57:00;;;;;;;14.03;10.33;;;3.50;99.90;;;;;;4430152;32;20170;-58
2021/05/07 00:59:28;;;;;;;15.60;10.77;;;3.50;99.90;;;;;;4420779;32;20482;-59
2021/05/07 01:01:54;;;;;;;13.83;10.83;;;3.50;99.90;;;;;;4422184;32;20445;-58
2021/05/07 01:04:21;;;;;;;12.07;9.97;;;3.50;99.90;;;;;;4420734;32;20501;-59
2021/05/07 01:06:47;;;;;;;16.43;10.57;;;3.50;99.90;;;;;;4421574;32;20273;-58
2021/05/07 01:09:13;;;;;;;12.90;10.07;;;3.50;99.90;;;;;;4427244;32;20437;-59
2021/05/07 01:11:40;;;;;;;17.50;10.60;;;3.50;99.90;;;;;;4420326;32;20182;-58
2021/05/07 01:14:07;;;;;;;12.60;9.83;;;3.50;99.90;;;;;;4420239;32;20457;-58
2021/05/07 01:16:35;;;;;;;16.00;9.77;;;3.50;99.90;;;;;;4421116;32;20166;-59
2021/05/07 01:19:01;;;;;;;12.07;9.93;;;3.50;99.90;;;;;;4420436;32;20200;-59
2021/05/07 01:21:28;;;;;;;16.87;10.40;;;3.50;99.90;;;;;;4422025;32;20179;-59
2021/05/07 01:23:55;;;;;;;14.17;10.33;;;3.60;99.90;;;;;;4420268;32;20204;-58
2021/05/07 01:26:21;;;;;;;11.10;9.00;;;3.60;99.90;;;;;;4420825;32;20154;-59
2021/05/07 01:28:48;;;;;;;14.07;9.10;;;3.50;99.90;;;;;;4433134;32;20647;-59
2021/05/07 01:31:14;;;;;;;13.33;9.83;;;3.50;99.90;;;;;;4435540;32;20156;-58
2021/05/07 01:33:42;;;;;;;14.10;10.53;;;3.50;99.90;;;;;;4432677;32;20316;-59
2021/05/07 01:36:08;;;;;;;12.43;10.17;;;3.40;99.90;;;;;;4419238;32;20151;-58
2021/05/07 01:38:49;;;;;;;15.03;10.67;;;3.50;99.90;;;;;;4421890;32;20148;-58
2021/05/07 01:41:18;;;;;;;12.97;10.30;;;3.40;99.90;;;;;;4416720;32;20228;-59
2021/05/07 01:43:45;;;;;;;15.90;11.03;;;3.50;99.90;;;;;;4415970;32;20766;-60
2021/05/07 01:46:14;;;;;;;13.53;10.77;;;3.60;99.90;;;;;;4419559;32;20546;-60
2021/05/07 01:48:43;;;;;;;16.70;10.63;;;3.60;99.90;;;;;;4414614;32;20198;-61
2021/05/07 01:51:10;;;;;;;15.53;11.43;;;3.70;99.90;;;;;;4419965;32;20147;-63
2021/05/07 01:53:36;;;;;;;18.03;10.83;;;3.80;99.90;;;;;;4420212;32;20521;-62
2021/05/07 01:56:15;;;;;;;13.67;11.10;;;3.90;99.90;;;;;;4428749;32;20594;-61
2021/05/07 01:58:51;;;;;;;13.03;10.83;;;4.00;99.90;;;;;;4415177;32;20679;-60
2021/05/07 02:01:17;;;;;;;12.40;10.40;;;4.00;99.90;;;;;;4418064;32;20150;-58
2021/05/07 02:03:44;;;;;;;15.30;10.87;;;4.10;99.90;;;;;;4429207;32;20179;-61
2021/05/07 02:06:10;;;;;;;15.07;11.37;;;4.20;99.90;;;;;;4428496;32;20568;-58
2021/05/07 02:08:37;;;;;;;14.00;11.67;;;4.20;99.90;;;;;;4427915;32;20253;-58
2021/05/07 02:11:04;;;;;;;16.07;10.87;;;4.30;99.90;;;;;;4423875;32;20169;-60
2021/05/07 02:13:30;;;;;;;16.80;9.97;;;4.30;99.90;;;;;;4423682;32;20172;-61
2021/05/07 02:15:57;;;;;;;13.40;10.10;;;4.30;99.90;;;;;;4431018;32;20160;-58
2021/05/07 02:18:25;;;;;;;15.70;10.30;;;4.40;99.90;;;;;;4427076;32;20151;-60
2021/05/07 02:20:54;;;;;;;14.70;10.10;;;4.40;99.90;;;;;;4453316;32;20147;-61
2021/05/07 02:23:21;;;;;;;12.97;10.10;;;4.40;99.90;;;;;;4453103;32;20257;-57
2021/05/07 02:25:48;;;;;;;14.13;11.07;;;4.40;99.90;;;;;;4453501;32;20203;-61
2021/05/07 02:28:15;;;;;;;13.13;10.33;;;4.40;99.90;;;;;;4448031;32;20618;-60
2021/05/07 02:30:41;;;;;;;15.20;12.27;;;4.30;99.90;;;;;;4426978;32;20551;-58
2021/05/07 02:33:07;;;;;;;18.13;12.27;;;4.40;99.90;;;;;;4437746;32;20159;-58
2021/05/07 02:35:35;;;;;;;15.63;12.23;;;4.40;99.90;;;;;;4438449;32;20196;-58
2021/05/07 02:38:02;;;;;;;15.17;12.37;;;4.50;99.90;;;;;;4437676;32;20180;-58
2021/05/07 02:40:29;;;;;;;15.63;11.40;;;4.50;99.90;;;;;;4425531;32;20183;-61
2021/05/07 02:42:55;;;;;;;13.97;11.73;;;4.50;99.90;;;;;;4422108;32;20170;-59
2021/05/07 02:45:23;;;;;;;16.83;12.73;;;4.60;99.90;;;;;;4420402;32;20213;-59
2021/05/07 02:47:49;;;;;;;17.77;13.07;;;4.60;99.90;;;;;;4430429;32;20247;-61
2021/05/07 02:50:16;;;;;;;15.20;12.13;;;4.60;99.90;;;;;;4432020;32;20204;-58
2021/05/07 02:52:42;;;;;;;18.07;13.57;;;4.60;99.90;;;;;;4437633;32;20562;-58
2021/05/07 02:55:09;;;;;;;15.80;13.40;;;4.60;99.90;;;;;;4437613;32;20148;-59
2021/05/07 02:57:36;;;;;;;15.60;12.13;;;4.80;99.90;;;;;;4438399;32;20176;-61
2021/05/07 03:00:03;;;;;;;20.07;13.33;;;4.80;99.90;;;;;;4430252;32;20182;-60
2021/05/07 03:02:30;;;;;;;18.77;12.60;;;4.80;99.90;;;;;;4422257;32;20672;-58
2021/05/07 03:04:56;;;;;;;20.33;13.03;;;4.80;99.90;;;;;;4422692;32;20215;-60
2021/05/07 03:07:23;;;;;;;17.33;11.73;;;4.90;99.90;;;;;;4421867;32;20168;-60
2021/05/07 03:09:49;;;;;;;14.13;11.30;;;4.90;99.90;;;;;;4425300;32;20202;-61
2021/05/07 03:12:24;;;;;;;14.37;10.67;;;4.90;99.90;;;;;;4424160;32;20502;-60
2021/05/07 03:14:50;;;;;;;12.37;9.77;;;4.90;99.90;;;;;;4409963;32;20290;-59
2021/05/07 03:17:17;;;;;;;12.07;9.53;;;4.90;99.90;;;;;;4414645;32;20216;-58
2021/05/07 03:19:44;;;;;;;8.80;7.60;;;4.80;99.90;;;;;;4426097;32;20294;-57
2021/05/07 03:22:10;;;;;;;9.57;7.13;;;4.70;99.90;;;;;;4419458;32;20227;-58
2021/05/07 03:24:36;;;;;;;8.40;5.83;;;4.60;99.90;;;;;;4425993;32;20212;-57
2021/05/07 03:27:05;;;;;;;9.50;5.77;;;4.50;99.90;;;;;;4428679;32;20211;-58
2021/05/07 03:29:31;;;;;;;9.23;4.67;;;4.50;99.90;;;;;;4422172;32;20155;-61
2021/05/07 03:31:57;;;;;;;5.13;3.87;;;4.50;99.90;;;;;;4431837;32;20215;-60
2021/05/07 03:34:26;;;;;;;5.07;3.80;;;4.30;99.90;;;;;;4421505;32;20263;-58
2021/05/07 03:36:54;;;;;;;4.93;3.70;;;4.20;99.90;;;;;;4422262;32;20598;-63
2021/05/07 03:39:24;;;;;;;4.70;3.30;;;4.20;99.90;;;;;;4425024;32;20168;-61
2021/05/07 03:41:50;;;;;;;4.13;3.40;;;4.20;99.90;;;;;;4421133;32;20305;-65
2021/05/07 03:44:17;;;;;;;7.53;3.47;;;4.20;99.90;;;;;;4429329;32;20216;-61
2021/05/07 03:46:43;;;;;;;3.40;2.60;;;4.20;99.90;;;;;;4421326;32;20163;-62
2021/05/07 03:49:10;;;;;;;6.97;3.00;;;4.10;99.90;;;;;;4422012;32;20575;-62
2021/05/07 03:51:36;;;;;;;5.47;3.00;;;4.00;99.90;;;;;;4438537;32;20219;-62
2021/05/07 03:54:04;;;;;;;3.47;2.83;;;4.00;99.90;;;;;;4452066;32;20195;-62
2021/05/07 03:56:30;;;;;;;4.73;2.67;;;3.90;99.90;;;;;;4451212;32;20155;-64
2021/05/07 03:58:57;;;;;;;7.17;2.70;;;3.90;99.90;;;;;;4452003;32;20147;-62
2021/05/07 04:01:24;;;;;;;3.23;2.73;;;3.90;99.90;;;;;;4447994;32;20182;-62
2021/05/07 04:03:51;;;;;;;5.03;2.60;;;3.80;99.90;;;;;;4452542;32;20226;-61
2021/05/07 04:06:19;;;;;;;6.53;2.97;;;3.70;99.90;;;;;;4452912;32;20260;-61
2021/05/07 04:08:51;;;;;;;5.63;3.10;;;3.70;99.90;;;;;;4451804;32;20195;-61
2021/05/07 04:11:26;;;;;;;7.33;3.77;;;3.60;99.90;;;;;;4442465;32;20175;-62
2021/05/07 04:13:52;;;;;;;6.67;3.20;;;3.70;99.90;;;;;;4421053;32;20144;-63
2021/05/07 04:16:18;;;;;;;6.13;3.47;;;3.70;99.90;;;;;;4420967;32;20270;-62
2021/05/07 04:18:45;;;;;;;5.73;3.27;;;3.60;99.90;;;;;;4423015;32;20599;-64
2021/05/07 04:21:11;;;;;;;8.83;3.80;;;3.50;99.90;;;;;;4422894;32;20510;-61
2021/05/07 04:23:37;;;;;;;4.47;3.47;;;3.40;99.90;;;;;;4421126;32;20511;-62
2021/05/07 04:26:04;;;;;;;4.80;3.10;;;3.50;99.90;;;;;;4421604;32;20523;-62
2021/05/07 04:28:31;;;;;;;5.93;3.77;;;3.50;99.90;;;;;;4420484;32;20230;-61
2021/05/07 04:30:58;;;;;;;4.30;3.43;;;3.60;99.90;;;;;;4426807;32;20274;-62
2021/05/07 04:33:24;;;;;;;7.37;3.13;;;3.60;99.90;;;;;;4429882;32;20220;-60
2021/05/07 04:35:50;;;;;;;5.03;3.13;;;3.60;99.90;;;;;;4420912;32;20206;-61
2021/05/07 04:38:16;;;;;;;4.63;3.80;;;3.70;99.90;;;;;;4421074;32;20175;-62
2021/05/07 04:40:43;;;;;;;3.33;2.57;;;3.80;99.90;;;;;;4422427;32;20228;-60
2021/05/07 04:43:09;;;;;;;4.67;3.43;;;3.80;99.90;;;;;;4422421;32;20665;-60
2021/05/07 04:45:37;;;;;;;4.80;2.60;;;3.80;99.90;;;;;;4421925;32;20151;-61
2021/05/07 04:48:11;;;;;;;4.57;3.20;;;3.80;99.90;;;;;;4420998;32;20568;-60
2021/05/07 04:50:37;;;;;;;5.37;3.33;;;3.90;99.90;;;;;;4421529;32;20169;-63
2021/05/07 04:53:04;;;;;;;4.50;3.00;;;3.90;99.90;;;;;;4420752;32;20152;-64
2021/05/07 04:55:30;;;;;;;3.43;2.97;;;3.90;99.90;;;;;;4421482;32;20219;-62
2021/05/07 04:57:56;;;;;;;3.37;3.03;;;4.00;99.90;;;;;;4420278;32;20186;-62
2021/05/07 05:00:23;;;;;;;3.37;2.93;;;4.10;99.90;;;;;;4425996;32;20541;-61
2021/05/07 05:02:50;;;;;;;4.57;3.17;;;4.10;99.90;;;;;;4435914;32;20237;-63
2021/05/07 05:05:17;;;;;;;4.60;3.07;;;4.20;99.90;;;;;;4436070;32;20219;-63
2021/05/07 05:07:52;;;;;;;4.93;3.57;;;4.40;99.90;;;;;;4431370;32;20550;-61
2021/05/07 05:10:18;;;;;;;5.97;3.60;;;4.50;99.90;;;;;;4429702;32;20572;-62
2021/05/07 05:12:44;;;;;;;3.17;2.80;;;4.70;99.90;;;;;;4454441;32;20209;-62
2021/05/07 05:15:12;;;;;;;5.13;3.80;;;5.00;99.90;;;;;;4454241;32;20159;-64
2021/05/07 05:17:38;;;;;;;4.17;3.13;;;5.70;99.90;;;;;;4454207;32;20210;-62
2021/05/07 05:20:07;;;;;;;3.67;2.70;;;10.40;99.90;;;;;;4449699;32;20223;-64
2021/05/07 05:22:33;;;;;;;1.60;1.43;;;15.60;95.30;;;;;;4423893;32;20219;-60
2021/05/07 05:25:04;;;;;;;1.70;1.40;;;19.60;78.80;;;;;;4429822;32;20164;-64
2021/05/07 05:27:30;;;;;;;1.63;1.10;;;22.50;63.00;;;;;;4423348;32;20152;-61
2021/05/07 05:29:57;;;;;;;1.47;1.13;;;24.50;53.20;;;;;;4423145;32;20175;-60
2021/05/07 05:32:23;;;;;;;1.67;1.33;;;25.80;47.60;;;;;;4425149;32;20216;-61
2021/05/07 05:34:49;;;;;;;0.97;0.83;;;27.10;44.60;;;;;;4423280;32;20179;-60
2021/05/07 05:37:17;;;;;;;1.43;1.03;;;27.90;41.60;;;;;;4423790;32;20148;-62
2021/05/07 05:39:43;;;;;;;1.37;1.00;;;27.50;41.00;;;;;;4424264;32;20178;-61
2021/05/07 05:42:09;;;;;;;1.40;1.10;;;26.50;40.90;;;;;;4443914;32;20201;-62
2021/05/07 05:44:36;;;;;;;1.30;1.07;;;26.00;40.20;;;;;;4453728;32;20210;-62
2021/05/07 05:47:04;;;;;;;4.67;1.77;;;23.40;42.20;;;;;;4453813;32;20207;-61
2021/05/07 05:49:31;;;;;;;1.37;1.27;;;19.90;47.60;;;;;;4453616;32;20147;-58
2021/05/07 05:51:57;;;;;;;2.93;1.70;;;16.70;56.80;;;;;;4440965;32;20181;-60
2021/05/07 05:54:24;;;;;;;2.50;1.50;;;14.30;66.50;;;;;;4438262;32;20147;-61
2021/05/07 05:56:50;;;;;;;2.57;1.20;;;12.60;75.30;;;;;;4438103;32;20208;-62
2021/05/07 05:59:17;;;;;;;1.77;1.67;;;11.40;83.20;;;;;;4444727;32;20293;-61
2021/05/07 06:01:43;;;;;;;3.37;1.80;;;10.30;91.20;;;;;;4429395;32;20189;-61
2021/05/07 06:04:09;;;;;;;2.63;2.00;;;10.20;98.00;;;;;;4438205;32;20223;-61
2021/05/07 06:06:35;;;;;;;1.77;1.60;;;13.20;95.80;;;;;;4438195;32;20151;-61
2021/05/07 06:09:04;;;;;;;1.30;1.20;;;18.80;77.50;;;;;;4428110;32;20272;-60
2021/05/07 06:11:31;;;;;;;1.37;1.27;;;23.60;55.60;;;;;;4422733;32;20586;-60
2021/05/07 06:13:57;;;;;;;1.93;1.37;;;26.80;43.90;;;;;;4423422;32;20499;-59
2021/05/07 06:16:24;;;;;;;2.90;1.50;;;28.20;40.40;;;;;;4422707;32;20178;-62
2021/05/07 06:18:50;;;;;;;1.47;1.37;;;27.20;38.00;;;;;;4423184;32;20147;-62
2021/05/07 06:21:16;;;;;;;1.60;1.50;;;23.60;42.00;;;;;;4422434;32;20216;-60
2021/05/07 06:23:43;;;;;;;2.47;1.60;;;21.30;46.90;;;;;;4422424;32;20139;-61
2021/05/07 06:26:09;;;;;;;2.97;1.57;;;19.50;52.50;;;;;;4422219;32;20183;-58
2021/05/07 06:28:36;;;;;;;3.13;2.03;;;18.20;57.20;;;;;;4423895;32;20599;-60
2021/05/07 06:31:02;;;;;;;2.87;1.80;;;16.70;62.40;;;;;;4424673;32;20155;-59
2021/05/07 06:33:29;;;;;;;4.17;2.57;;;15.50;68.40;;;;;;4429087;32;20225;-62
2021/05/07 06:35:55;;;;;;;2.67;2.30;;;14.30;73.90;;;;;;4422245;32;20154;-61
2021/05/07 06:38:21;;;;;;;2.27;1.90;;;13.30;77.70;;;;;;4423766;32;20179;-58
2021/05/07 06:40:48;;;;;;;2.50;2.30;;;12.60;82.30;;;;;;4453704;32;20194;-61
2021/05/07 06:43:15;;;;;;;3.03;2.40;;;13.60;80.00;;;;;;4453263;32;20163;-60
2021/05/07 06:45:42;;;;;;;2.40;2.10;;;14.50;76.30;;;;;;4452953;32;20143;-61
2021/05/07 06:48:08;;;;;;;2.37;2.10;;;14.80;75.60;;;;;;4453009;32;20162;-61
2021/05/07 06:50:35;;;;;;;3.07;1.83;;;16.30;72.40;;;;;;4430258;32;20155;-63
2021/05/07 06:53:01;;;;;;;2.13;1.93;;;20.80;59.80;;;;;;4423150;32;20211;-63
2021/05/07 06:55:27;;;;;;;2.60;1.60;;;24.40;47.40;;;;;;4421750;32;20144;-61
2021/05/07 06:57:54;;;;;;;3.10;1.97;;;27.80;40.90;;;;;;4421984;32;20219;-60
2021/05/07 07:00:20;;;;;;;2.93;1.50;;;29.10;37.40;;;;;;4423986;32;20257;-61
2021/05/07 07:02:48;;;;;;;5.00;2.00;;;30.80;35.60;;;;;;4421804;32;20189;-60
2021/05/07 07:05:14;;;;;;;2.13;1.70;;;32.40;32.50;;;;;;4421917;32;20147;-61
2021/05/07 07:07:41;;;;;;;3.77;1.97;;;31.30;32.80;;;;;;4421809;32;20558;-61
2021/05/07 07:10:08;;;;;;;1.63;1.53;;;31.70;32.60;;;;;;4425215;32;20218;-61
2021/05/07 07:12:34;;;;;;;2.37;1.57;;;32.40;32.20;;;;;;4421740;32;20163;-59
2021/05/07 07:15:01;;;;;;;2.17;1.60;;;31.50;32.00;;;;;;4421656;32;20665;-60
2021/05/07 07:17:27;;;;;;;2.53;2.17;;;30.80;33.30;;;;;;4421436;32;20199;-59
2021/05/07 07:19:55;;;;;;;2.22;1.65;;;33.10;31.80;;;;;;4423981;32;20260;-60
2021/05/07 07:22:21;;;;;;;3.22;2.28;;;34.10;31.00;;;;;;4421439;32;20174;-60
2021/05/07 07:24:49;;;;;;;1.95;1.77;;;32.70;30.60;;;;;;4420667;32;20151;-63
2021/05/07 07:27:16;;;;;;;2.62;1.95;;;34.50;30.80;;;;;;4398692;32;1213565;-63
2021/05/07 07:29:43;;;;;;;2.85;1.65;;;36.00;29.80;;;;;;4435130;32;20188;-61
2021/05/07 07:32:10;;;;;;;2.37;2.17;;;36.80;30.10;;;;;;4422271;32;20179;-61
2021/05/07 07:34:36;;;;;;;3.15;1.70;;;36.90;28.70;;;;;;4421374;32;20190;-61
2021/05/07 07:37:03;;;;;;;2.30;2.08;;;38.00;29.10;;;;;;4422374;32;20590;-60
2021/05/07 07:39:30;;;;;;;2.90;2.37;;;40.50;27.60;;;;;;4420975;32;20191;-62
2021/05/07 07:41:56;;;;;;;4.65;1.85;;;40.00;27.30;;;;;;4429706;32;20152;-65
2021/05/07 07:44:22;;;;;;;1.95;1.73;;;40.90;28.00;;;;;;4425611;32;20189;-63
2021/05/07 07:46:49;;;;;;;2.20;1.92;;;41.10;27.70;;;;;;4421128;32;20182;-62
2021/05/07 07:49:15;;;;;;;2.92;1.98;;;42.60;26.90;;;;;;4421039;32;20147;-64
2021/05/07 07:51:42;;;;;;;2.22;2.03;;;44.20;27.20;;;;;;4430541;32;20155;-62
2021/05/07 07:54:11;;;;;;;3.60;2.20;;;43.70;26.70;;;;;;4436319;32;20198;-62
2021/05/07 07:56:38;;;;;;;3.42;1.80;;;44.10;26.20;;;;;;4436339;32;20244;-60
2021/05/07 07:59:05;;;;;;;2.33;1.77;;;45.00;26.50;;;;;;4436518;32;20155;-64
2021/05/07 08:01:31;;;;;;;1.90;1.70;;;46.00;26.90;;;;;;4434647;32;20152;-64
2021/05/07 08:03:58;;;;;;;3.10;2.15;;;44.30;25.80;;;;;;4436630;32;20207;-62
2021/05/07 08:06:24;;;;;;;3.15;2.60;;;42.10;26.60;;;;;;4436510;32;20167;-63
2021/05/07 08:08:50;;;;;;;2.65;2.20;;;42.90;25.70;;;;;;4436098;32;20181;-59
2021/05/07 08:11:18;;;;;;;4.60;2.35;;;42.50;25.90;;;;;;4430862;32;20174;-62
2021/05/07 08:13:52;;;;;;;3.08;2.15;;;42.40;26.80;;;;;;4420225;32;20165;-62
2021/05/07 08:16:18;;;;;;;3.80;2.37;;;44.00;26.40;;;;;;4426278;32;20148;-63
2021/05/07 08:18:44;;;;;;;2.10;1.90;;;44.80;25.80;;;;;;4436446;32;20524;-61
2021/05/07 08:21:11;;;;;;;2.17;1.98;;;44.90;25.70;;;;;;4433966;32;20155;-62
2021/05/07 08:23:37;;;;;;;2.83;2.15;;;43.60;25.30;;;;;;4421280;32;20185;-61
2021/05/07 08:26:03;;;;;;;2.47;1.87;;;42.50;25.00;;;;;;4420466;32;20231;-61
2021/05/07 08:28:30;;;;;;;2.60;2.40;;;39.10;26.70;;;;;;4421264;32;20209;-63
2021/05/07 08:30:57;;;;;;;4.10;2.62;;;35.40;27.10;;;;;;4420726;32;20174;-60
2021/05/07 08:33:23;;;;;;;4.85;3.20;;;29.30;29.80;;;;;;4430386;32;20174;-62
2021/05/07 08:35:49;;;;;;;2.50;2.30;;;24.70;34.60;;;;;;4421990;32;20234;-62
2021/05/07 08:38:16;;;;;;;8.17;3.03;;;21.10;39.40;;;;;;4420431;32;20163;-64
2021/05/07 08:40:42;;;;;;;3.50;2.77;;;18.40;44.60;;;;;;4420291;32;20139;-64
2021/05/07 08:43:11;;;;;;;4.83;3.27;;;16.10;51.10;;;;;;4421698;32;20247;-61
2021/05/07 08:45:38;;;;;;;4.37;3.17;;;15.00;61.60;;;;;;4420765;32;20177;-62
2021/05/07 08:48:06;;;;;;;6.20;3.00;;;14.10;68.40;;;;;;4420234;32;20169;-61
2021/05/07 08:50:33;;;;;;;5.47;3.40;;;13.70;71.20;;;;;;4420201;32;20577;-63
2021/05/07 08:53:00;;;;;;;4.87;2.70;;;15.90;70.90;;;;;;4437987;32;20182;-63
2021/05/07 08:55:26;;;;;;;4.40;2.70;;;22.90;54.00;;;;;;4451041;32;20264;-64
2021/05/07 08:57:52;;;;;;;5.50;2.93;;;30.20;36.40;;;;;;4451058;32;20176;-61
2021/05/07 09:00:20;;;;;;;4.27;2.57;;;34.30;30.50;;;;;;4451073;32;20202;-64
2021/05/07 09:02:47;;;;;;;5.37;3.07;;;36.00;29.80;;;;;;4445783;32;20147;-64
2021/05/07 09:05:13;;;;;;;5.18;2.70;;;37.20;29.10;;;;;;4451518;32;20166;-61
2021/05/07 09:07:40;;;;;;;4.18;2.40;;;38.30;27.60;;;;;;4451181;32;20257;-62
2021/05/07 09:10:07;;;;;;;4.60;2.72;;;37.70;27.30;;;;;;4450781;32;20151;-65
2021/05/07 09:12:36;;;;;;;2.85;2.37;;;36.30;27.90;;;;;;4445448;32;20606;-64
2021/05/07 09:15:07;;;;;;;6.37;2.93;;;34.70;28.10;;;;;;4451675;32;20147;-62
2021/05/07 09:17:36;;;;;;;5.55;2.42;;;33.30;28.20;;;;;;4450892;32;20481;-64
2021/05/07 09:20:09;;;;;;;3.63;1.60;;;33.90;28.50;;;;;;4450917;32;20200;-65
2021/05/07 09:22:36;;;;;;;4.87;2.10;;;28.90;29.50;;;;;;4445341;32;20511;-64
2021/05/07 09:25:12;;;;;;;5.13;3.13;;;23.90;34.30;;;;;;4423639;32;20183;-64
2021/05/07 09:27:39;;;;;;;4.67;3.17;;;19.30;42.10;;;;;;4420646;32;20177;-62
2021/05/07 09:30:22;;;;;;;6.83;3.47;;;16.40;49.90;;;;;;4420020;32;20152;-62
2021/05/07 09:32:50;;;;;;;4.47;3.00;;;14.90;59.70;;;;;;4424741;32;20173;-65
2021/05/07 09:35:17;;;;;;;7.50;3.40;;;14.00;67.10;;;;;;4420120;32;20147;-63
2021/05/07 09:37:44;;;;;;;5.43;3.27;;;14.20;69.80;;;;;;4420645;32;20510;-63
2021/05/07 09:40:16;;;;;;;5.33;3.23;;;14.70;68.20;;;;;;4422546;32;20152;-60
2021/05/07 09:42:43;;;;;;;4.80;3.30;;;14.70;67.30;;;;;;4427016;32;20495;-62
2021/05/07 09:45:24;;;;;;;5.43;3.30;;;14.30;68.40;;;;;;4436578;32;20195;-61
2021/05/07 09:47:51;;;;;;;6.73;3.47;;;13.90;70.10;;;;;;4435969;32;20612;-61
2021/05/07 09:50:20;;;;;;;4.20;3.37;;;14.30;69.10;;;;;;4437157;32;20148;-62
2021/05/07 09:52:50;;;;;;;6.27;3.40;;;14.50;68.50;;;;;;4434863;32;20181;-63
2021/05/07 09:55:18;;;;;;;3.93;3.53;;;14.80;67.20;;;;;;4422757;32;20679;-61
2021/05/07 09:57:44;;;;;;;7.57;3.30;;;15.00;65.80;;;;;;4422684;32;20215;-61
2021/05/07 10:00:12;;;;;;;3.80;2.97;;;15.20;65.30;;;;;;4423684;32;20219;-62
2021/05/07 10:02:38;;;;;;;5.83;3.10;;;14.50;68.40;;;;;;4437670;32;20185;-61
2021/05/07 10:05:06;;;;;;;3.80;2.40;;;13.60;66.50;;;;;;4439857;32;20177;-62
2021/05/07 10:07:33;;;;;;;3.87;2.60;;;13.00;68.10;;;;;;4438153;32;20166;-61
2021/05/07 10:10:04;;;;;;;3.70;2.13;;;12.70;68.90;;;;;;4437968;32;20211;-63
2021/05/07 10:12:32;;;;;;;4.53;2.60;;;12.60;70.80;;;;;;4425493;32;20210;-62
2021/05/07 10:14:59;;;;;;;4.60;2.67;;;12.40;69.90;;;;;;4426826;32;20246;-63
2021/05/07 10:17:25;;;;;;;5.00;2.73;;;12.10;72.40;;;;;;4426142;32;20169;-64
2021/05/07 10:19:52;;;;;;;4.90;2.70;;;12.30;72.10;;;;;;4422586;32;20190;-61
2021/05/07 10:22:25;;;;;;;5.63;2.90;;;12.10;73.30;;;;;;4433019;32;20201;-60
2021/05/07 10:24:53;;;;;;;4.20;2.97;;;12.30;74.10;;;;;;4437425;32;20147;-64
2021/05/07 10:27:21;;;;;;;3.60;3.23;;;12.20;72.60;;;;;;4437814;32;20195;-64
2021/05/07 10:29:56;;;;;;;9.80;2.70;;;12.50;74.90;;;;;;4426608;32;20512;-63
2021/05/07 10:32:32;;;;;;;6.30;2.97;;;12.70;69.90;;;;;;4423280;32;20150;-63
2021/05/07 10:34:59;;;;;;;6.60;3.87;;;13.20;72.40;;;;;;4422639;32;20167;-64
2021/05/07 10:37:36;;;;;;;4.57;2.80;;;13.60;73.10;;;;;;4422266;32;20211;-63
2021/05/07 10:40:05;;;;;;;4.07;3.00;;;13.80;70.50;;;;;;4425354;32;20149;-58
2021/05/07 10:42:31;;;;;;;4.47;2.87;;;14.00;68.60;;;;;;4422203;32;20197;-62
2021/05/07 10:44:58;;;;;;;4.20;3.03;;;14.40;65.60;;;;;;4423073;32;20552;-64
2021/05/07 10:47:32;;;;;;;6.90;3.87;;;14.30;65.50;;;;;;4421988;32;20267;-66
2021/05/07 10:49:59;;;;;;;4.23;2.93;;;13.70;68.40;;;;;;4425258;32;20154;-61
2021/05/07 10:52:37;;;;;;;4.07;2.47;;;13.40;65.20;;;;;;4432085;32;20221;-62
2021/05/07 10:55:09;;;;;;;4.17;3.10;;;13.30;66.40;;;;;;4418721;32;20173;-63
2021/05/07 10:57:38;;;;;;;5.67;3.43;;;13.00;67.00;;;;;;4412923;32;20243;-64
2021/05/07 11:00:16;;;;;;;5.53;3.20;;;13.10;66.30;;;;;;4423254;32;20269;-62
2021/05/07 11:02:46;;;;;;;4.37;2.27;;;13.50;65.00;;;;;;4429271;32;20162;-65
2021/05/07 11:05:35;;;;;;;3.53;2.50;;;13.80;64.20;;;;;;4409171;32;20186;-63
2021/05/07 11:08:01;;;;;;;3.37;2.77;;;13.90;61.90;;;;;;4417383;32;20222;-63
2021/05/07 11:10:29;;;;;;;4.47;2.37;;;13.80;63.70;;;;;;4418833;32;20261;-63
2021/05/07 11:12:56;;;;;;;6.17;3.23;;;13.70;64.30;;;;;;4425130;32;20171;-61
2021/05/07 11:15:22;;;;;;;5.73;3.03;;;13.50;62.40;;;;;;4428908;32;20166;-61
2021/05/07 11:17:59;;;;;;;5.60;3.03;;;13.50;64.90;;;;;;4424094;32;20571;-63
2021/05/07 11:20:34;;;;;;;3.03;2.50;;;13.50;61.00;;;;;;4434811;32;20151;-63
2021/05/07 11:23:02;;;;;;;3.93;2.60;;;13.60;61.30;;;;;;4452529;32;20558;-61
2021/05/07 11:25:31;;;;;;;3.03;2.50;;;13.30;63.10;;;;;;4453705;32;20163;-62
2021/05/07 11:28:10;;;;;;;3.67;3.23;;;13.60;63.60;;;;;;4452228;32;20193;-62
2021/05/07 11:30:45;;;;;;;3.73;2.70;;;13.70;62.50;;;;;;4436733;32;20188;-63
2021/05/07 11:33:12;;;;;;;4.90;3.17;;;13.90;62.50;;;;;;4421293;32;20152;-61
2021/05/07 11:35:38;;;;;;;4.60;3.30;;;13.70;61.90;;;;;;4422502;32;20589;-62
2021/05/07 11:38:04;;;;;;;5.43;3.50;;;13.50;59.40;;;;;;4421983;32;20619;-64
2021/05/07 11:40:37;;;;;;;3.03;2.67;;;13.30;59.80;;;;;;4424046;32;20155;-63
2021/05/07 11:43:11;;;;;;;3.37;2.63;;;13.10;62.10;;;;;;4421221;32;20160;-61
2021/05/07 11:45:37;;;;;;;3.13;2.20;;;13.40;59.60;;;;;;4421206;32;20192;-63
2021/05/07 11:48:08;;;;;;;3.60;2.93;;;13.70;59.40;;;;;;4421726;32;20196;-64
2021/05/07 11:50:35;;;;;;;6.53;3.00;;;13.90;59.90;;;;;;4425715;32;20186;-64
2021/05/07 11:53:01;;;;;;;6.13;2.53;;;13.70;57.10;;;;;;4437757;32;20537;-63
2021/05/07 11:55:30;;;;;;;4.63;2.53;;;13.40;60.40;;;;;;4436395;32;20215;-62
2021/05/07 11:57:59;;;;;;;3.60;2.40;;;13.80;59.60;;;;;;4437951;32;20504;-61
2021/05/07 12:00:26;;;;;;;3.97;2.90;;;13.70;58.10;;;;;;4434726;32;20154;-65
2021/05/07 12:03:00;;;;;;;4.27;2.97;;;13.40;57.60;;;;;;4421016;32;20167;-63
2021/05/07 12:05:31;;;;;;;3.93;3.40;;;13.50;60.20;;;;;;4420871;32;20174;-63
2021/05/07 12:07:57;;;;;;;3.50;3.20;;;13.30;58.30;;;;;;4422573;32;20177;-63
2021/05/07 12:10:24;;;;;;;4.30;3.17;;;13.10;59.20;;;;;;4420978;32;20147;-62
2021/05/07 12:12:54;;;;;;;4.73;2.40;;;13.00;59.60;;;;;;4421856;32;20190;-63
2021/05/07 12:15:23;;;;;;;3.97;3.43;;;13.30;61.50;;;;;;4420713;32;20147;-63
2021/05/07 12:17:51;;;;;;;9.67;3.47;;;13.40;62.20;;;;;;4420238;32;20147;-62
2021/05/07 12:20:19;;;;;;;5.20;3.47;;;14.10;61.60;;;;;;4421150;32;20595;-62
2021/05/07 12:22:46;;;;;;;4.37;2.83;;;14.30;58.20;;;;;;4424354;32;20189;-64
2021/05/07 12:25:14;;;;;;;4.97;3.27;;;14.10;58.60;;;;;;4421335;32;20629;-62
2021/05/07 12:27:42;;;;;;;5.93;3.90;;;14.10;57.40;;;;;;4421931;32;20143;-63
2021/05/07 12:30:17;;;;;;;3.47;3.10;;;14.30;60.00;;;;;;4420736;32;20212;-62
2021/05/07 12:32:53;;;;;;;7.20;3.67;;;14.60;60.30;;;;;;4421967;32;20211;-61
2021/05/07 12:35:19;;;;;;;6.00;3.07;;;14.20;60.90;;;;;;4420449;32;20464;-62
2021/05/07 12:37:46;;;;;;;4.63;2.90;;;13.60;58.60;;;;;;4421089;32;20542;-61
2021/05/07 12:40:13;;;;;;;3.57;2.70;;;13.90;60.90;;;;;;4421846;32;20178;-65
2021/05/07 12:42:39;;;;;;;6.03;3.30;;;14.30;59.60;;;;;;4421923;32;20230;-61
2021/05/07 12:45:06;;;;;;;4.80;3.67;;;14.60;59.40;;;;;;4420543;32;20170;-66
2021/05/07 12:47:33;;;;;;;5.50;3.33;;;13.90;61.50;;;;;;4422292;32;20210;-64